Time;durP1;ratioP1;P1;durP2;ratioP2;P2;SDS_P1;SDS_P2;PMS_P1;PMS_P2;Temp;Humidity;BMP_temperature;BMP_pressure;BME280_temperature;BME280_humidity;BME280_pressure;Samples;Min_cycle;Max_cycle;Signal;HPM_P1;HPM_P2
2022/06/27 00:00:18;;;;;;;7.45;3.95;;;27.20;61.10;;;;;;5098671;28;20364;-74
2022/06/27 00:02:44;;;;;;;5.97;4.50;;;27.20;61.60;;;;;;5103438;28;20075;-78
2022/06/27 00:05:11;;;;;;;4.65;3.78;;;27.40;60.90;;;;;;5112309;28;20127;-78
2022/06/27 00:07:37;;;;;;;6.35;3.85;;;27.80;60.40;;;;;;5116077;28;20058;-77
2022/06/27 00:10:04;;;;;;;6.47;4.00;;;27.60;60.60;;;;;;5107807;28;20042;-77
2022/06/27 00:12:30;;;;;;;5.60;5.00;;;27.60;60.80;;;;;;5114506;28;20072;-78
2022/06/27 00:14:56;;;;;;;7.43;4.30;;;27.90;60.00;;;;;;5113101;28;20031;-80
2022/06/27 00:17:22;;;;;;;5.10;3.75;;;27.40;60.70;;;;;;5114227;28;20470;-79
2022/06/27 00:19:48;;;;;;;6.00;4.30;;;26.60;62.80;;;;;;5111634;28;20028;-78
2022/06/27 00:22:13;;;;;;;5.47;3.97;;;26.50;63.20;;;;;;5109314;28;20055;-77
2022/06/27 00:24:39;;;;;;;6.35;4.10;;;27.00;62.40;;;;;;5115720;28;20110;-78
2022/06/27 00:27:05;;;;;;;6.28;4.30;;;27.60;61.10;;;;;;5110968;28;20053;-80
2022/06/27 00:29:31;;;;;;;5.85;3.95;;;27.80;60.30;;;;;;5087548;28;20029;-77
2022/06/27 00:31:57;;;;;;;6.80;4.40;;;27.40;61.20;;;;;;5110199;28;20016;-77
2022/06/27 00:34:22;;;;;;;5.28;4.13;;;27.50;61.20;;;;;;5115260;28;20500;-78
2022/06/27 00:36:48;;;;;;;4.85;3.75;;;27.80;60.20;;;;;;5108923;28;20543;-77
2022/06/27 00:39:14;;;;;;;5.65;3.85;;;27.90;59.90;;;;;;5109861;28;20545;-79
2022/06/27 00:41:39;;;;;;;6.28;4.30;;;28.10;59.70;;;;;;5113969;28;20110;-78
2022/06/27 00:44:05;;;;;;;6.05;4.20;;;27.80;59.60;;;;;;5114018;28;20379;-78
2022/06/27 00:46:31;;;;;;;6.13;4.20;;;27.30;60.30;;;;;;5113819;28;20023;-78
2022/06/27 00:48:57;;;;;;;6.15;4.53;;;27.50;60.20;;;;;;5114233;28;20027;-76
2022/06/27 00:51:26;;;;;;;5.43;4.10;;;28.00;59.30;;;;;;5109246;28;20521;-78
2022/06/27 00:53:55;;;;;;;6.30;4.45;;;28.20;58.60;;;;;;5110486;28;20479;-78
2022/06/27 00:56:21;;;;;;;7.38;5.30;;;28.30;58.80;;;;;;5113912;28;20020;-78
2022/06/27 00:58:47;;;;;;;8.02;4.65;;;28.60;58.40;;;;;;5095489;28;20364;-77
2022/06/27 01:01:13;;;;;;;5.50;4.70;;;28.70;58.20;;;;;;5108220;28;20028;-78
2022/06/27 01:03:38;;;;;;;7.13;5.30;;;28.60;58.20;;;;;;5092702;28;20271;-77
2022/06/27 01:06:04;;;;;;;5.97;4.35;;;28.60;58.10;;;;;;5107785;28;20387;-79
2022/06/27 01:08:31;;;;;;;6.78;4.80;;;28.70;57.90;;;;;;5093865;28;20040;-78
2022/06/27 01:10:56;;;;;;;7.22;5.13;;;28.50;58.10;;;;;;5095213;28;20047;-78
2022/06/27 01:13:23;;;;;;;8.77;5.30;;;28.30;58.40;;;;;;5095085;28;20020;-79
2022/06/27 01:15:49;;;;;;;10.48;5.00;;;28.30;58.30;;;;;;5095209;28;20077;-78
2022/06/27 01:18:16;;;;;;;7.97;4.63;;;28.30;58.30;;;;;;5114363;28;20424;-78
2022/06/27 01:20:43;;;;;;;6.50;4.32;;;28.30;58.00;;;;;;5075136;28;20119;-78
2022/06/27 01:23:09;;;;;;;8.68;4.88;;;27.80;59.00;;;;;;5110937;28;20024;-78
2022/06/27 01:25:38;;;;;;;6.63;4.70;;;27.90;58.80;;;;;;5113125;28;20034;-78
2022/06/27 01:28:05;;;;;;;6.25;5.07;;;28.10;58.50;;;;;;5113243;28;20028;-78
2022/06/27 01:30:31;;;;;;;6.93;4.85;;;28.30;58.20;;;;;;5093287;28;20085;-78
2022/06/27 01:32:57;;;;;;;7.10;5.07;;;28.30;58.10;;;;;;5112646;28;20032;-78
2022/06/27 01:35:23;;;;;;;6.18;4.68;;;28.30;58.00;;;;;;5112940;28;20098;-78
2022/06/27 01:37:49;;;;;;;6.47;5.38;;;28.30;58.00;;;;;;5112908;28;20031;-78
2022/06/27 01:40:15;;;;;;;8.00;4.97;;;28.30;58.10;;;;;;5110916;28;20059;-78
2022/06/27 01:42:43;;;;;;;6.93;5.05;;;28.10;58.20;;;;;;5090837;28;20046;-76
2022/06/27 01:45:10;;;;;;;7.22;5.10;;;28.20;58.30;;;;;;5091480;28;20036;-78
2022/06/27 01:47:36;;;;;;;7.47;5.57;;;28.20;58.30;;;;;;5096761;28;20031;-78
2022/06/27 01:50:03;;;;;;;8.32;5.30;;;28.10;58.60;;;;;;5108872;28;20034;-78
2022/06/27 01:52:30;;;;;;;6.65;5.03;;;28.10;58.20;;;;;;5093787;28;20019;-78
2022/06/27 01:54:56;;;;;;;8.38;5.78;;;28.10;58.30;;;;;;5109476;28;20020;-77
2022/06/27 01:57:22;;;;;;;6.72;5.47;;;28.10;58.30;;;;;;5112450;28;20032;-76
2022/06/27 01:59:52;;;;;;;6.95;5.22;;;28.00;58.30;;;;;;5099981;28;20066;-77
2022/06/27 02:02:19;;;;;;;8.55;5.75;;;27.70;58.50;;;;;;5110748;28;20098;-78
2022/06/27 02:04:47;;;;;;;9.70;6.13;;;27.70;58.60;;;;;;5089685;28;20384;-78
2022/06/27 02:07:13;;;;;;;7.78;5.53;;;27.70;58.60;;;;;;5112416;28;20023;-76
2022/06/27 02:09:39;;;;;;;7.13;5.32;;;27.70;58.70;;;;;;5109897;28;20028;-78
2022/06/27 02:12:21;;;;;;;8.35;5.78;;;27.70;58.90;;;;;;5111992;28;20024;-78
2022/06/27 02:14:51;;;;;;;7.53;6.18;;;27.70;59.10;;;;;;5109326;28;20028;-76
2022/06/27 02:17:17;;;;;;;7.10;5.60;;;27.70;59.20;;;;;;5109340;28;20016;-77
2022/06/27 02:19:44;;;;;;;7.70;5.97;;;27.70;59.20;;;;;;5089083;28;20023;-78
2022/06/27 02:22:11;;;;;;;6.72;5.60;;;27.80;59.10;;;;;;5103034;28;20023;-78
2022/06/27 02:24:37;;;;;;;7.20;5.90;;;27.70;59.30;;;;;;5112029;28;20065;-77
2022/06/27 02:27:04;;;;;;;7.10;5.50;;;27.50;59.90;;;;;;5111896;28;20092;-78
2022/06/27 02:29:29;;;;;;;9.07;6.05;;;27.50;59.30;;;;;;5111414;28;20035;-77
2022/06/27 02:31:58;;;;;;;7.15;5.82;;;27.40;59.50;;;;;;5110663;28;20027;-78
2022/06/27 02:34:23;;;;;;;7.75;5.85;;;27.40;59.60;;;;;;5112024;28;20020;-78
2022/06/27 02:36:50;;;;;;;7.38;5.97;;;27.40;59.50;;;;;;5112021;28;20035;-78
2022/06/27 02:39:18;;;;;;;7.28;5.90;;;27.40;59.60;;;;;;5109981;28;20028;-78
2022/06/27 02:41:47;;;;;;;7.75;6.18;;;27.50;59.40;;;;;;5105166;28;20043;-78
2022/06/27 02:44:14;;;;;;;8.45;6.07;;;27.40;59.40;;;;;;5113221;28;20077;-77
2022/06/27 02:46:41;;;;;;;7.68;6.20;;;27.50;59.40;;;;;;5098626;28;20052;-78
2022/06/27 02:49:07;;;;;;;9.32;6.13;;;27.40;59.50;;;;;;5104184;28;20535;-77
2022/06/27 02:51:54;;;;;;;7.38;6.68;;;27.40;59.70;;;;;;5111855;28;20036;-78
2022/06/27 02:54:26;;;;;;;8.13;6.70;;;27.30;59.80;;;;;;5108185;28;20033;-78
2022/06/27 02:57:28;;;;;;;8.32;6.53;;;27.40;59.90;;;;;;5110343;28;20103;-76
2022/06/27 02:59:57;;;;;;;8.20;6.53;;;27.50;59.60;;;;;;5091597;28;21524;-78
2022/06/27 03:02:26;;;;;;;8.05;6.30;;;27.50;59.60;;;;;;5091926;28;20529;-78
2022/06/27 03:04:53;;;;;;;7.75;6.85;;;27.50;59.50;;;;;;5106598;28;20077;-77
2022/06/27 03:07:20;;;;;;;7.57;6.35;;;27.60;59.50;;;;;;5079897;28;20514;-78
2022/06/27 03:09:46;;;;;;;8.80;6.20;;;27.60;59.30;;;;;;5093153;28;20028;-78
2022/06/27 03:12:11;;;;;;;7.32;6.32;;;27.50;59.60;;;;;;5108030;28;20030;-78
2022/06/27 03:14:37;;;;;;;10.27;6.32;;;27.40;59.50;;;;;;5087392;28;20031;-77
2022/06/27 03:17:04;;;;;;;10.70;6.55;;;27.20;60.00;;;;;;5089599;28;20386;-78
2022/06/27 03:19:30;;;;;;;7.10;5.43;;;27.20;60.10;;;;;;5108866;28;20541;-77
2022/06/27 03:21:56;;;;;;;8.43;6.75;;;27.10;60.80;;;;;;5117077;28;20045;-77
2022/06/27 03:24:22;;;;;;;8.43;6.78;;;27.00;60.80;;;;;;5112201;28;20047;-78
2022/06/27 03:26:48;;;;;;;7.10;6.20;;;27.10;60.60;;;;;;5114088;28;20030;-78
2022/06/27 03:29:14;;;;;;;6.68;5.90;;;27.20;60.60;;;;;;5115241;28;20644;-78
2022/06/27 03:31:40;;;;;;;7.10;6.40;;;27.30;60.50;;;;;;5113716;28;20031;-77
2022/06/27 03:34:05;;;;;;;8.05;6.28;;;27.30;60.30;;;;;;5115155;28;20161;-78
2022/06/27 03:36:31;;;;;;;7.65;6.18;;;27.30;60.30;;;;;;5110151;28;20027;-78
2022/06/27 03:38:57;;;;;;;10.73;7.07;;;27.40;60.40;;;;;;5113719;28;20031;-76
2022/06/27 03:41:22;;;;;;;9.02;6.95;;;27.60;60.20;;;;;;5109814;28;20020;-78
2022/06/27 03:43:48;;;;;;;10.30;6.20;;;27.70;60.10;;;;;;5114931;28;20429;-78
2022/06/27 03:46:14;;;;;;;8.50;6.97;;;27.70;60.20;;;;;;5114886;28;20066;-77
2022/06/27 03:51:24;;;;;;;9.00;6.72;;;27.80;59.90;;;;;;5110445;28;20534;-77
2022/06/27 03:53:50;;;;;;;8.40;6.55;;;27.90;60.20;;;;;;5115661;28;20067;-78
2022/06/27 03:56:16;;;;;;;6.82;6.05;;;27.90;60.10;;;;;;5110859;28;20489;-77
2022/06/27 03:58:42;;;;;;;7.63;6.22;;;27.90;60.10;;;;;;5093589;28;20059;-78
2022/06/27 04:01:07;;;;;;;11.40;6.60;;;27.90;60.10;;;;;;5110015;28;20485;-78
2022/06/27 04:03:33;;;;;;;8.18;6.38;;;28.00;60.00;;;;;;5108159;28;20044;-78
2022/06/27 04:05:59;;;;;;;9.23;5.30;;;28.20;59.70;;;;;;5112461;28;20035;-78
2022/06/27 04:08:24;;;;;;;8.93;5.93;;;28.20;59.10;;;;;;5113650;28;20463;-78
2022/06/27 04:10:50;;;;;;;7.70;6.20;;;28.30;58.70;;;;;;5113956;28;20449;-78
2022/06/27 04:13:16;;;;;;;8.85;6.30;;;28.50;58.90;;;;;;5097772;28;20447;-78
2022/06/27 04:15:41;;;;;;;7.53;6.28;;;28.60;59.00;;;;;;5089462;28;20054;-79
2022/06/27 04:18:07;;;;;;;6.88;6.00;;;28.70;59.10;;;;;;5116041;28;20037;-78
2022/06/27 04:20:33;;;;;;;7.70;5.70;;;28.80;58.60;;;;;;5103832;28;20470;-78
2022/06/27 04:22:59;;;;;;;7.95;6.32;;;28.70;58.70;;;;;;5110566;28;20019;-79
2022/06/27 04:25:24;;;;;;;7.55;5.85;;;28.70;58.70;;;;;;5109429;28;20375;-79
2022/06/27 04:27:50;;;;;;;8.57;5.43;;;28.80;58.80;;;;;;5115409;28;20020;-79
2022/06/27 04:30:16;;;;;;;7.70;6.00;;;28.90;58.70;;;;;;5109293;28;20470;-80
2022/06/27 04:32:48;;;;;;;7.55;5.30;;;29.00;58.60;;;;;;5095438;28;20028;-79
2022/06/27 04:35:14;;;;;;;7.38;5.60;;;28.70;58.70;;;;;;5113681;28;20118;-79
2022/06/27 04:37:43;;;;;;;7.72;6.05;;;28.50;59.80;;;;;;5113763;28;20427;-80
2022/06/27 04:40:11;;;;;;;7.93;5.60;;;28.70;59.90;;;;;;5113548;28;20020;-80
2022/06/27 04:42:37;;;;;;;7.78;5.60;;;28.70;59.50;;;;;;5110302;28;20023;-79
2022/06/27 04:45:06;;;;;;;8.00;5.13;;;28.70;59.80;;;;;;5110436;28;20045;-79
2022/06/27 04:47:32;;;;;;;9.90;5.05;;;28.80;59.60;;;;;;5105025;28;20026;-79
2022/06/27 04:49:58;;;;;;;6.22;4.75;;;29.00;59.10;;;;;;5113043;28;20025;-78
2022/06/27 04:52:24;;;;;;;9.40;4.80;;;29.10;58.90;;;;;;5109722;28;20471;-78
2022/06/27 04:54:50;;;;;;;5.72;4.55;;;29.20;58.80;;;;;;5113589;28;20500;-78
2022/06/27 04:57:16;;;;;;;6.78;4.78;;;29.40;58.40;;;;;;5099717;28;20072;-76
2022/06/27 04:59:41;;;;;;;5.88;4.75;;;29.50;58.00;;;;;;5113882;28;20019;-77
2022/06/27 05:02:08;;;;;;;9.90;4.68;;;29.60;57.80;;;;;;5105727;28;20506;-79
2022/06/27 05:04:33;;;;;;;5.30;4.57;;;29.70;58.00;;;;;;5100351;28;20627;-77
2022/06/27 05:06:59;;;;;;;6.97;4.47;;;29.90;57.70;;;;;;5111221;28;20032;-76
2022/06/27 05:09:26;;;;;;;6.15;4.57;;;30.00;57.50;;;;;;5113602;28;20109;-81
2022/06/27 05:11:54;;;;;;;6.72;4.68;;;29.90;57.40;;;;;;5093365;28;20030;-77
2022/06/27 05:14:20;;;;;;;6.50;4.82;;;29.90;57.50;;;;;;5112716;28;20100;-77
2022/06/27 05:16:47;;;;;;;7.90;4.60;;;30.00;57.40;;;;;;5106626;28;20016;-77
2022/06/27 05:19:13;;;;;;;6.28;4.75;;;30.20;57.10;;;;;;5108063;28;20063;-82
2022/06/27 05:21:39;;;;;;;6.72;5.00;;;30.20;56.90;;;;;;5092310;28;20518;-82
2022/06/27 05:24:05;;;;;;;11.82;4.97;;;30.40;56.80;;;;;;5092518;28;20031;-77
2022/06/27 05:26:31;;;;;;;6.13;4.60;;;30.50;57.00;;;;;;5110628;28;20023;-78
2022/06/27 05:28:57;;;;;;;6.57;4.68;;;30.70;56.50;;;;;;5112970;28;20042;-76
2022/06/27 05:31:22;;;;;;;6.55;4.50;;;30.70;56.10;;;;;;5113241;28;20386;-79
2022/06/27 05:33:48;;;;;;;6.47;4.40;;;30.60;56.00;;;;;;5109996;28;20024;-85
2022/06/27 05:36:14;;;;;;;14.20;4.68;;;30.40;55.90;;;;;;5106789;28;20439;-79
2022/06/27 05:38:40;;;;;;;6.28;4.47;;;29.30;57.70;;;;;;5075830;28;20035;-79
2022/06/27 05:41:06;;;;;;;10.02;4.65;;;28.80;58.90;;;;;;5082586;28;20040;-81
2022/06/27 05:43:32;;;;;;;5.68;4.38;;;28.50;59.60;;;;;;5106805;28;20034;-82
2022/06/27 05:45:58;;;;;;;6.50;3.90;;;28.80;59.40;;;;;;5111482;28;20412;-85
2022/06/27 05:48:25;;;;;;;6.80;4.38;;;29.00;58.70;;;;;;5093667;28;20027;-79
2022/06/27 05:50:50;;;;;;;6.30;4.40;;;28.80;59.00;;;;;;4740064;28;10000227;-79
2022/06/27 05:53:16;;;;;;;6.32;4.20;;;29.30;59.10;;;;;;5090265;28;20036;-79
2022/06/27 05:55:46;;;;;;;7.30;4.75;;;29.70;58.40;;;;;;5071959;28;20024;-77
2022/06/27 05:58:13;;;;;;;7.78;4.30;;;30.20;57.40;;;;;;5089220;28;20066;-77
2022/06/27 06:00:39;;;;;;;5.68;4.10;;;30.10;58.10;;;;;;5070672;28;20565;-75
2022/06/27 06:03:05;;;;;;;8.30;4.10;;;30.60;56.70;;;;;;5089936;28;20048;-77
2022/06/27 06:05:31;;;;;;;12.63;4.95;;;30.70;56.80;;;;;;5088021;28;20161;-78
2022/06/27 06:08:05;;;;;;;7.15;4.28;;;31.10;56.50;;;;;;5097335;28;20039;-79
2022/06/27 06:10:33;;;;;;;6.05;4.05;;;31.60;56.00;;;;;;5083675;28;20043;-79
2022/06/27 06:13:02;;;;;;;7.18;4.53;;;31.80;56.10;;;;;;5089549;28;20020;-80
2022/06/27 06:15:30;;;;;;;7.72;3.83;;;32.10;55.00;;;;;;5087519;28;20039;-79
2022/06/27 06:17:56;;;;;;;8.15;4.65;;;31.80;55.40;;;;;;5090458;28;20024;-78
2022/06/27 06:20:22;;;;;;;7.32;4.03;;;31.10;56.20;;;;;;5090798;28;20031;-80
2022/06/27 06:22:48;;;;;;;9.55;5.00;;;30.70;57.10;;;;;;5072527;28;20063;-78
2022/06/27 06:25:14;;;;;;;10.43;4.35;;;30.30;57.40;;;;;;5069369;28;20082;-78
2022/06/27 06:27:40;;;;;;;7.75;3.90;;;30.20;57.50;;;;;;5070755;28;20024;-78
2022/06/27 06:30:07;;;;;;;9.55;4.40;;;30.10;58.30;;;;;;5087552;28;20450;-78
2022/06/27 06:32:34;;;;;;;5.47;3.90;;;30.00;58.20;;;;;;5090961;28;20027;-77
2022/06/27 06:35:00;;;;;;;8.93;4.00;;;29.80;58.40;;;;;;5088531;28;20034;-77
2022/06/27 06:37:27;;;;;;;5.97;4.35;;;29.80;58.90;;;;;;5090020;28;20026;-78
2022/06/27 06:39:56;;;;;;;8.30;4.28;;;29.60;59.50;;;;;;5089665;28;20028;-85
2022/06/27 06:42:22;;;;;;;8.68;4.40;;;29.60;59.60;;;;;;5081571;28;20024;-81
2022/06/27 06:44:48;;;;;;;7.25;4.50;;;29.80;59.00;;;;;;5087534;28;20414;-79
2022/06/27 06:47:15;;;;;;;6.05;4.38;;;29.50;59.00;;;;;;5070925;28;20482;-79
2022/06/27 06:49:41;;;;;;;7.07;4.47;;;29.50;58.40;;;;;;5071271;28;20118;-85
2022/06/27 06:52:07;;;;;;;8.65;4.18;;;29.70;59.10;;;;;;5065456;28;20553;-79
2022/06/27 06:54:33;;;;;;;12.70;4.60;;;30.00;58.80;;;;;;5088421;28;20028;-77
2022/06/27 06:56:59;;;;;;;5.38;4.45;;;30.40;58.20;;;;;;5106778;28;20114;-81
2022/06/27 06:59:25;;;;;;;8.25;5.00;;;30.70;57.60;;;;;;5084700;28;20123;-77
2022/06/27 07:01:50;;;;;;;6.05;4.80;;;30.50;57.90;;;;;;5079178;28;20028;-80
2022/06/27 07:04:16;;;;;;;6.70;4.72;;;30.50;57.10;;;;;;5070199;28;20135;-78
2022/06/27 07:06:43;;;;;;;8.95;5.13;;;30.10;57.50;;;;;;5051176;28;20033;-83
2022/06/27 07:09:09;;;;;;;10.07;4.72;;;30.10;58.30;;;;;;5090153;28;20036;-76
2022/06/27 07:11:37;;;;;;;6.10;4.50;;;30.00;57.50;;;;;;5079883;28;20042;-79
2022/06/27 07:14:04;;;;;;;8.38;4.80;;;30.20;58.00;;;;;;5076215;28;20043;-79
2022/06/27 07:16:31;;;;;;;7.20;4.50;;;30.50;57.60;;;;;;5091467;28;20814;-83
2022/06/27 07:19:00;;;;;;;6.60;4.53;;;30.60;57.20;;;;;;5093058;28;20065;-77
2022/06/27 07:21:31;;;;;;;10.80;4.80;;;30.50;57.30;;;;;;5110417;28;20497;-83
2022/06/27 07:23:57;;;;;;;9.25;4.55;;;30.70;57.10;;;;;;5109994;28;20024;-81
2022/06/27 07:26:23;;;;;;;7.00;4.72;;;30.70;57.50;;;;;;5076328;28;20064;-81
2022/06/27 07:28:51;;;;;;;8.57;4.97;;;30.50;56.80;;;;;;5055512;28;20054;-79
2022/06/27 07:31:18;;;;;;;8.15;4.70;;;30.60;57.10;;;;;;5076007;28;20028;-75
2022/06/27 07:33:46;;;;;;;5.13;4.38;;;31.30;56.70;;;;;;5089419;28;20479;-83
2022/06/27 07:36:15;;;;;;;7.15;4.47;;;31.30;55.90;;;;;;5079525;28;20059;-79
2022/06/27 07:38:49;;;;;;;7.93;4.40;;;30.60;56.70;;;;;;5109839;28;20062;-79
2022/06/27 07:41:19;;;;;;;6.70;4.28;;;30.50;57.10;;;;;;5069366;28;20468;-83
2022/06/27 07:43:46;;;;;;;6.88;4.20;;;30.70;57.70;;;;;;5071418;28;20925;-78
2022/06/27 07:46:12;;;;;;;8.70;4.60;;;31.00;56.80;;;;;;5089579;28;20032;-88
2022/06/27 07:48:39;;;;;;;7.43;4.35;;;31.30;57.10;;;;;;5102897;28;20103;-85
2022/06/27 07:51:05;;;;;;;10.02;4.60;;;31.50;56.50;;;;;;5095669;28;20032;-77
2022/06/27 07:53:31;;;;;;;6.05;4.38;;;31.90;56.10;;;;;;5088173;28;20035;-78
2022/06/27 07:55:59;;;;;;;7.32;4.30;;;32.30;55.70;;;;;;5079204;28;20057;-76
2022/06/27 07:58:30;;;;;;;5.97;4.13;;;32.10;54.80;;;;;;5089909;28;20096;-82
2022/06/27 08:00:59;;;;;;;19.40;4.78;;;32.30;55.70;;;;;;5082116;28;20028;-79
2022/06/27 08:03:36;;;;;;;8.85;4.60;;;32.50;56.70;;;;;;5091768;28;20406;-78
2022/06/27 08:06:18;;;;;;;12.65;7.07;;;33.00;54.40;;;;;;5093551;28;20043;-79
2022/06/27 08:08:52;;;;;;;12.63;6.63;;;33.10;54.50;;;;;;5092072;28;20024;-80
2022/06/27 08:11:23;;;;;;;6.25;4.10;;;32.90;54.40;;;;;;5074296;28;20023;-79
2022/06/27 08:13:51;;;;;;;9.68;5.45;;;32.70;54.70;;;;;;5086021;28;20036;-79
2022/06/27 08:16:20;;;;;;;7.95;5.45;;;32.90;54.60;;;;;;5091253;28;20487;-80
2022/06/27 08:18:50;;;;;;;12.77;7.38;;;33.00;54.50;;;;;;5090103;28;20032;-80
2022/06/27 08:21:19;;;;;;;8.52;4.97;;;33.50;53.90;;;;;;5073438;28;20125;-83
2022/06/27 08:23:46;;;;;;;8.77;4.43;;;33.40;54.00;;;;;;5091326;28;20127;-79
2022/06/27 08:26:13;;;;;;;9.48;5.20;;;33.50;53.30;;;;;;5091054;28;20426;-78
2022/06/27 08:28:40;;;;;;;9.57;5.30;;;33.50;55.40;;;;;;5091543;28;20024;-78
2022/06/27 08:31:08;;;;;;;11.57;5.63;;;33.90;54.50;;;;;;5068823;28;20020;-83
2022/06/27 08:33:35;;;;;;;11.48;4.20;;;33.70;53.30;;;;;;5067440;28;20052;-80
2022/06/27 08:36:02;;;;;;;7.63;4.00;;;33.50;53.30;;;;;;5092668;28;20483;-84
2022/06/27 08:38:29;;;;;;;10.50;4.80;;;33.80;52.90;;;;;;5072800;28;20036;-77
2022/06/27 08:40:56;;;;;;;8.60;4.75;;;33.90;53.10;;;;;;5091797;28;20032;-76
2022/06/27 08:43:23;;;;;;;6.22;3.97;;;34.10;53.10;;;;;;5091503;28;20013;-78
2022/06/27 08:45:53;;;;;;;6.07;3.80;;;34.70;52.70;;;;;;5092265;28;20036;-84
2022/06/27 08:48:19;;;;;;;7.13;4.45;;;35.00;51.60;;;;;;5074885;28;20020;-80
2022/06/27 08:50:48;;;;;;;6.97;4.20;;;34.30;52.00;;;;;;5095394;28;20023;-86
2022/06/27 08:53:17;;;;;;;6.55;3.80;;;33.70;52.60;;;;;;5084337;28;20029;-78
2022/06/27 08:55:47;;;;;;;6.18;3.83;;;33.80;51.60;;;;;;5080753;28;20020;-77
2022/06/27 08:58:14;;;;;;;5.45;3.70;;;33.60;52.00;;;;;;5074218;28;20115;-78
2022/06/27 09:00:45;;;;;;;8.05;3.70;;;33.70;52.20;;;;;;5086140;28;20482;-78
2022/06/27 09:03:18;;;;;;;7.60;3.85;;;33.90;52.20;;;;;;5095130;28;20429;-80
2022/06/27 09:05:57;;;;;;;7.47;3.53;;;34.20;53.10;;;;;;4740724;28;10000521;-78
2022/06/27 09:08:31;;;;;;;4.97;3.75;;;33.40;52.70;;;;;;5088594;28;20024;-81
2022/06/27 09:10:58;;;;;;;7.28;3.60;;;33.60;52.40;;;;;;5090239;28;20139;-78
2022/06/27 09:13:25;;;;;;;5.75;3.50;;;34.10;52.00;;;;;;5102652;28;20051;-83
2022/06/27 09:16:04;;;;;;;5.72;3.50;;;34.20;52.00;;;;;;5078832;28;20032;-77
2022/06/27 09:18:37;;;;;;;5.90;3.30;;;34.40;51.10;;;;;;5079079;28;20092;-76
2022/06/27 09:21:05;;;;;;;6.57;3.75;;;34.80;52.00;;;;;;5088397;28;20031;-80
2022/06/27 09:23:41;;;;;;;8.15;3.60;;;34.60;52.30;;;;;;5111765;28;20023;-79
2022/06/27 09:26:12;;;;;;;5.90;3.33;;;34.40;49.90;;;;;;5095502;28;20039;-77
2022/06/27 09:28:44;;;;;;;7.78;3.72;;;34.40;50.70;;;;;;5099250;28;20078;-82
2022/06/27 09:31:30;;;;;;;6.05;3.47;;;34.60;51.00;;;;;;5093389;28;20082;-77
2022/06/27 09:34:12;;;;;;;11.20;4.00;;;35.00;50.50;;;;;;5073303;28;20089;-75
2022/06/27 09:36:47;;;;;;;6.03;3.60;;;35.40;51.10;;;;;;5095640;28;20430;-79
2022/06/27 09:39:29;;;;;;;8.02;3.65;;;35.80;50.20;;;;;;5069337;28;20027;-83
2022/06/27 09:42:01;;;;;;;6.60;3.60;;;35.40;50.60;;;;;;5072205;28;20036;-77
2022/06/27 09:44:28;;;;;;;9.93;3.97;;;35.30;50.40;;;;;;5089015;28;20027;-81
2022/06/27 09:47:02;;;;;;;7.82;3.60;;;35.60;49.30;;;;;;5101703;28;20032;-81
2022/06/27 09:49:40;;;;;;;4.35;3.53;;;35.20;49.40;;;;;;5105462;28;20047;-79
2022/06/27 09:52:13;;;;;;;6.55;3.70;;;35.10;49.60;;;;;;5093631;28;20023;-79
2022/06/27 09:54:42;;;;;;;6.30;3.42;;;35.40;50.80;;;;;;5072026;28;20028;-82
2022/06/27 09:57:09;;;;;;;7.65;3.63;;;35.70;49.60;;;;;;5075512;28;20471;-81
2022/06/27 09:59:36;;;;;;;5.28;3.30;;;35.70;49.60;;;;;;5088638;28;20532;-82
2022/06/27 10:02:06;;;;;;;7.32;3.70;;;36.20;50.50;;;;;;5093556;28;20024;-79
2022/06/27 10:04:35;;;;;;;5.25;3.28;;;36.80;49.00;;;;;;5093246;28;20047;-79
2022/06/27 10:07:03;;;;;;;7.85;3.20;;;36.90;48.30;;;;;;5093504;28;20028;-77
2022/06/27 10:09:32;;;;;;;6.70;3.25;;;37.00;48.90;;;;;;5093534;28;20016;-79
2022/06/27 10:12:26;;;;;;;4.95;3.30;;;37.20;48.40;;;;;;5093843;28;20036;-84
2022/06/27 10:15:09;;;;;;;5.20;3.03;;;37.20;47.60;;;;;;5093139;28;20028;-78
2022/06/27 10:17:44;;;;;;;7.88;3.30;;;37.20;48.70;;;;;;5093387;28;20055;-78
2022/06/27 10:20:12;;;;;;;5.68;3.15;;;37.00;47.60;;;;;;5093592;28;20518;-84
2022/06/27 10:22:38;;;;;;;12.32;3.60;;;37.00;47.60;;;;;;5093606;28;20435;-80
2022/06/27 10:25:26;;;;;;;5.55;3.50;;;36.50;47.40;;;;;;5093145;28;20036;-77
2022/06/27 10:28:18;;;;;;;5.70;3.47;;;35.80;49.00;;;;;;5093264;28;20500;-78
2022/06/27 10:30:55;;;;;;;5.40;3.70;;;35.70;49.40;;;;;;5089987;28;20039;-78
2022/06/27 10:33:21;;;;;;;4.10;3.40;;;36.10;49.50;;;;;;5093276;28;20049;-79
2022/06/27 10:38:39;;;;;;;7.28;3.20;;;37.00;48.10;;;;;;5093179;28;20432;-80
2022/06/27 10:41:10;;;;;;;5.55;3.30;;;37.20;48.00;;;;;;5074801;28;20097;-79
2022/06/27 10:43:36;;;;;;;5.68;3.67;;;36.90;48.10;;;;;;5093292;28;20347;-79
2022/06/27 10:46:10;;;;;;;5.13;3.50;;;36.80;48.60;;;;;;5093071;28;20532;-79
2022/06/27 10:48:47;;;;;;;6.38;3.40;;;37.20;47.70;;;;;;5075286;28;20472;-78
2022/06/27 10:51:18;;;;;;;7.70;3.47;;;37.30;49.30;;;;;;5093281;28;20028;-80
2022/06/27 10:53:49;;;;;;;8.63;3.50;;;37.70;48.00;;;;;;5092864;28;20475;-77
2022/06/27 10:56:30;;;;;;;8.18;3.65;;;37.70;47.10;;;;;;5075581;28;20032;-77
2022/06/27 10:59:00;;;;;;;6.40;3.35;;;37.30;47.60;;;;;;5092856;28;20031;-77
2022/06/27 11:01:27;;;;;;;5.97;3.40;;;36.70;48.80;;;;;;5074988;28;20127;-84
2022/06/27 11:03:53;;;;;;;6.15;3.60;;;36.00;47.80;;;;;;5074731;28;20123;-88
2022/06/27 11:06:19;;;;;;;6.65;3.60;;;35.80;48.70;;;;;;5092582;28;20433;-79
2022/06/27 11:08:48;;;;;;;7.82;3.45;;;36.30;48.50;;;;;;5074482;28;20839;-79
2022/06/27 11:11:18;;;;;;;4.45;3.20;;;36.70;48.10;;;;;;5074379;28;20044;-80
2022/06/27 11:13:54;;;;;;;8.02;3.30;;;37.00;48.00;;;;;;5092779;28;20027;-78
2022/06/27 11:16:26;;;;;;;4.28;3.30;;;37.00;49.10;;;;;;5092585;28;20021;-79
2022/06/27 11:19:02;;;;;;;7.68;3.25;;;37.40;48.50;;;;;;5092330;28;20028;-78
2022/06/27 11:21:35;;;;;;;6.70;3.42;;;37.50;50.10;;;;;;5074724;28;20024;-77
2022/06/27 11:24:02;;;;;;;6.15;3.10;;;37.40;47.10;;;;;;5092791;28;20032;-79
2022/06/27 11:26:38;;;;;;;8.05;3.30;;;36.70;48.40;;;;;;5092750;28;20032;-77
2022/06/27 11:32:04;;;;;;;6.07;3.33;;;36.20;48.80;;;;;;5092827;28;20104;-82
2022/06/27 11:34:33;;;;;;;4.43;3.53;;;36.60;47.80;;;;;;5092565;28;20058;-78
2022/06/27 11:37:02;;;;;;;4.65;3.40;;;36.80;48.40;;;;;;5075320;28;20067;-79
2022/06/27 11:39:30;;;;;;;5.40;3.53;;;36.90;47.50;;;;;;5078567;28;20025;-78
2022/06/27 11:42:02;;;;;;;5.15;3.80;;;36.90;47.20;;;;;;5078453;28;20390;-79
2022/06/27 11:44:28;;;;;;;5.65;3.35;;;36.80;46.50;;;;;;5096117;28;20016;-79
2022/06/27 11:47:08;;;;;;;5.55;3.42;;;36.80;48.00;;;;;;5096509;28;20555;-79
2022/06/27 11:49:36;;;;;;;11.60;3.72;;;37.00;47.90;;;;;;4742039;28;10000147;-82
2022/06/27 11:52:05;;;;;;;5.78;3.33;;;36.80;47.30;;;;;;5077962;28;20024;-76
2022/06/27 11:54:44;;;;;;;6.38;3.47;;;36.50;46.90;;;;;;5096594;28;20127;-80
2022/06/27 11:57:27;;;;;;;9.20;3.40;;;36.30;46.70;;;;;;5096210;28;20069;-81
2022/06/27 11:59:56;;;;;;;5.22;3.10;;;35.80;48.00;;;;;;5078065;28;20284;-79
2022/06/27 12:02:27;;;;;;;5.13;3.30;;;36.10;47.90;;;;;;5077426;28;20035;-82
2022/06/27 12:05:13;;;;;;;6.50;3.40;;;36.20;47.60;;;;;;5095119;28;20028;-80
2022/06/27 12:08:01;;;;;;;11.82;3.55;;;36.80;47.00;;;;;;5077804;28;20032;-78
2022/06/27 12:10:40;;;;;;;6.47;3.80;;;37.40;47.00;;;;;;5096292;28;20020;-78
2022/06/27 12:13:11;;;;;;;5.30;3.20;;;37.30;46.90;;;;;;5095873;28;20020;-78
2022/06/27 12:15:38;;;;;;;5.45;3.50;;;37.50;47.20;;;;;;5077844;28;20280;-79
2022/06/27 12:18:06;;;;;;;6.03;3.30;;;36.90;47.10;;;;;;5095776;28;20016;-79
2022/06/27 12:20:33;;;;;;;5.03;3.55;;;36.80;47.90;;;;;;5095710;28;20022;-79
2022/06/27 12:23:00;;;;;;;4.78;3.65;;;36.80;47.00;;;;;;5095955;28;20028;-76
2022/06/27 12:25:26;;;;;;;4.82;3.40;;;36.70;47.20;;;;;;5095095;28;20043;-80
2022/06/27 12:27:53;;;;;;;5.05;3.60;;;36.80;46.50;;;;;;5095426;28;20460;-78
2022/06/27 12:30:19;;;;;;;6.28;3.47;;;36.90;46.60;;;;;;5095500;28;20039;-77
2022/06/27 12:32:45;;;;;;;4.85;3.40;;;36.90;46.10;;;;;;5095016;28;20032;-79
2022/06/27 12:35:11;;;;;;;5.47;3.30;;;36.60;48.00;;;;;;5077167;28;20034;-81
2022/06/27 12:37:38;;;;;;;5.32;3.60;;;36.80;47.50;;;;;;5095520;28;20020;-79
2022/06/27 12:40:05;;;;;;;5.60;3.60;;;36.70;46.70;;;;;;5077046;28;20028;-77
2022/06/27 12:42:32;;;;;;;5.25;3.45;;;36.40;46.90;;;;;;5095114;28;20042;-78
2022/06/27 12:44:57;;;;;;;5.45;3.40;;;36.30;47.00;;;;;;5094847;28;20390;-78
2022/06/27 12:47:23;;;;;;;6.40;3.25;;;36.80;46.80;;;;;;5095053;28;20020;-79
2022/06/27 12:49:49;;;;;;;5.65;3.65;;;37.10;46.10;;;;;;5094951;28;20028;-80
2022/06/27 12:52:16;;;;;;;6.60;3.60;;;37.30;46.40;;;;;;5095457;28;20084;-80
2022/06/27 12:54:42;;;;;;;6.53;3.33;;;37.40;46.60;;;;;;5095115;28;20107;-79
2022/06/27 12:57:08;;;;;;;6.00;3.60;;;37.20;45.90;;;;;;5076564;28;20733;-80
2022/06/27 12:59:34;;;;;;;5.95;3.33;;;37.30;46.60;;;;;;5095022;28;20481;-79